Time;durP1;ratioP1;P1;durP2;ratioP2;P2;SDS_P1;SDS_P2;PMS_P1;PMS_P2;Temp;Humidity;BMP_temperature;BMP_pressure;BME280_temperature;BME280_humidity;BME280_pressure;Samples;Min_cycle;Max_cycle;Signal;HPM_P1;HPM_P2
2023/04/21 00:01:01;;;;;;;10.55;7.63;;;3.10;99.90;;;;;;5091101;28;20227;-72
2023/04/21 00:03:32;;;;;;;12.63;8.93;;;3.10;99.90;;;;;;5091023;28;20674;-72
2023/04/21 00:05:59;;;;;;;9.57;7.80;;;3.10;99.90;;;;;;5091309;28;20688;-73
2023/04/21 00:08:26;;;;;;;9.23;7.38;;;3.10;99.90;;;;;;5090649;28;20203;-71
2023/04/21 00:10:53;;;;;;;12.77;8.77;;;3.00;99.90;;;;;;5090719;28;20754;-72
2023/04/21 00:13:25;;;;;;;11.60;7.97;;;3.00;99.90;;;;;;5082332;28;20201;-72
2023/04/21 00:15:51;;;;;;;11.32;8.35;;;3.00;99.90;;;;;;5091305;28;20219;-72
2023/04/21 00:18:18;;;;;;;9.68;7.60;;;3.00;99.90;;;;;;5090095;28;20219;-72
2023/04/21 00:20:45;;;;;;;14.80;9.02;;;3.00;99.90;;;;;;5075048;28;20199;-72
2023/04/21 00:23:12;;;;;;;10.35;7.68;;;3.00;99.90;;;;;;5082584;28;20579;-72
2023/04/21 00:25:38;;;;;;;13.55;8.50;;;3.00;99.90;;;;;;5090890;28;20204;-72
2023/04/21 00:28:05;;;;;;;11.90;7.60;;;3.00;99.90;;;;;;5082198;28;20199;-72
2023/04/21 00:30:33;;;;;;;9.68;7.07;;;3.00;99.90;;;;;;5088941;28;20222;-72
2023/04/21 00:33:00;;;;;;;10.55;7.22;;;3.00;99.90;;;;;;5091004;28;20475;-73
2023/04/21 00:35:27;;;;;;;11.32;7.85;;;3.00;99.90;;;;;;5090126;28;20206;-72
2023/04/21 00:37:53;;;;;;;10.60;6.85;;;3.00;99.90;;;;;;5090518;28;20207;-72
2023/04/21 00:40:20;;;;;;;11.38;8.55;;;3.00;99.90;;;;;;5090022;28;20210;-72
2023/04/21 00:42:47;;;;;;;7.55;5.78;;;3.00;99.90;;;;;;5090463;28;20212;-72
2023/04/21 00:45:14;;;;;;;11.07;7.47;;;3.00;99.90;;;;;;5090765;28;20199;-72
2023/04/21 00:47:42;;;;;;;10.23;7.45;;;3.00;99.90;;;;;;5082111;28;20199;-71
2023/04/21 00:50:10;;;;;;;11.57;7.95;;;2.90;99.90;;;;;;5090602;28;20192;-71
2023/04/21 00:52:39;;;;;;;12.65;7.65;;;2.90;99.90;;;;;;5089768;28;20223;-71
2023/04/21 00:55:07;;;;;;;11.30;8.27;;;2.90;99.90;;;;;;5090643;28;20223;-72
2023/04/21 00:57:36;;;;;;;8.10;6.82;;;2.90;99.90;;;;;;5089788;28;20200;-72
2023/04/21 01:00:05;;;;;;;9.45;7.65;;;2.90;99.90;;;;;;5089352;28;20412;-72
2023/04/21 01:02:32;;;;;;;9.65;7.03;;;2.80;99.90;;;;;;5089526;28;20634;-71
2023/04/21 01:05:00;;;;;;;18.38;8.52;;;2.80;99.90;;;;;;5090383;28;20574;-72
2023/04/21 01:07:27;;;;;;;7.53;6.70;;;2.80;99.90;;;;;;5090101;28;20203;-71
2023/04/21 01:09:54;;;;;;;10.48;6.57;;;2.80;99.90;;;;;;5090223;28;20203;-71
2023/04/21 01:12:21;;;;;;;12.75;8.25;;;2.70;99.90;;;;;;5089224;28;20238;-72
2023/04/21 01:14:48;;;;;;;9.45;6.65;;;2.70;99.90;;;;;;5090233;28;20200;-72
2023/04/21 01:17:17;;;;;;;9.07;7.03;;;2.70;99.90;;;;;;5090106;28;20204;-71
2023/04/21 01:19:45;;;;;;;8.52;6.72;;;2.60;99.90;;;;;;5090400;28;20211;-72
2023/04/21 01:22:14;;;;;;;9.32;6.50;;;2.70;99.90;;;;;;5089557;28;20224;-72
2023/04/21 01:24:42;;;;;;;9.60;5.63;;;2.60;99.90;;;;;;5089954;28;20188;-71
2023/04/21 01:27:11;;;;;;;6.90;5.85;;;2.60;99.90;;;;;;5089981;28;20474;-71
2023/04/21 01:29:37;;;;;;;6.40;5.45;;;2.50;99.90;;;;;;5089615;28;22438;-71
2023/04/21 01:32:06;;;;;;;8.95;6.18;;;2.50;99.90;;;;;;5089619;28;20298;-72
2023/04/21 01:34:33;;;;;;;8.52;5.70;;;2.40;99.90;;;;;;5089464;28;20204;-72
2023/04/21 01:36:59;;;;;;;6.47;5.78;;;2.40;99.90;;;;;;5089939;28;20253;-71
2023/04/21 01:39:28;;;;;;;6.63;4.97;;;2.40;99.90;;;;;;5089274;28;20305;-72
2023/04/21 01:41:56;;;;;;;8.10;6.43;;;2.40;99.90;;;;;;5089529;28;20227;-71
2023/04/21 01:44:23;;;;;;;8.80;5.63;;;2.40;99.90;;;;;;5089726;28;20203;-72
2023/04/21 01:46:50;;;;;;;7.82;5.10;;;2.30;99.90;;;;;;5090223;28;20215;-71
2023/04/21 01:49:17;;;;;;;13.23;6.60;;;2.20;99.90;;;;;;5089843;28;20223;-71
2023/04/21 01:54:12;;;;;;;8.38;5.75;;;2.20;99.90;;;;;;5067663;28;20220;-68
2023/04/21 01:56:40;;;;;;;7.85;6.03;;;2.20;99.90;;;;;;5069372;28;20196;-69
2023/04/21 01:59:06;;;;;;;7.53;5.85;;;2.20;99.90;;;;;;5069090;28;20216;-70
2023/04/21 02:01:34;;;;;;;6.82;5.53;;;2.10;99.90;;;;;;5068700;28;20227;-69
2023/04/21 02:04:02;;;;;;;8.40;5.57;;;2.10;99.90;;;;;;5069456;28;20235;-70
2023/04/21 02:06:30;;;;;;;8.90;5.63;;;2.00;99.90;;;;;;5069068;28;20690;-70
2023/04/21 02:08:56;;;;;;;9.20;6.60;;;2.00;99.90;;;;;;5064002;28;20197;-70
2023/04/21 02:11:24;;;;;;;6.97;5.32;;;2.00;99.90;;;;;;5067778;28;20220;-70
2023/04/21 02:13:52;;;;;;;7.32;5.10;;;2.00;99.90;;;;;;5053703;28;20220;-71
2023/04/21 02:16:19;;;;;;;7.40;5.70;;;1.90;99.90;;;;;;5053227;28;20240;-71
2023/04/21 02:18:47;;;;;;;7.80;5.95;;;1.90;99.90;;;;;;5053002;28;20209;-70
2023/04/21 02:21:14;;;;;;;8.85;5.78;;;1.90;99.90;;;;;;5052768;28;20217;-70
2023/04/21 02:23:40;;;;;;;6.07;4.95;;;1.80;99.90;;;;;;5052610;28;20212;-70
2023/04/21 02:26:07;;;;;;;8.23;5.40;;;1.80;99.90;;;;;;5052543;28;20204;-70
2023/04/21 02:28:34;;;;;;;7.70;4.97;;;1.80;99.90;;;;;;5055275;28;20201;-70
2023/04/21 02:31:02;;;;;;;7.88;5.65;;;1.80;99.90;;;;;;5073421;28;20629;-70
2023/04/21 02:33:29;;;;;;;8.65;6.47;;;1.80;99.90;;;;;;5073905;28;20196;-70
2023/04/21 02:35:56;;;;;;;7.50;5.85;;;1.80;99.90;;;;;;5073428;28;20196;-70
2023/04/21 02:38:22;;;;;;;10.57;6.75;;;1.80;99.90;;;;;;5073884;28;20204;-70
2023/04/21 02:40:49;;;;;;;10.35;6.93;;;1.80;99.90;;;;;;5073771;28;20283;-70
2023/04/21 02:43:16;;;;;;;7.95;5.60;;;1.70;99.90;;;;;;5074338;28;20207;-70
2023/04/21 02:45:43;;;;;;;10.90;6.68;;;1.70;99.90;;;;;;5074187;28;20204;-70
2023/04/21 02:48:11;;;;;;;11.93;7.38;;;1.70;99.90;;;;;;5073563;28;20204;-70
2023/04/21 02:50:38;;;;;;;10.57;7.22;;;1.70;99.90;;;;;;5072820;28;20200;-70
2023/04/21 02:53:05;;;;;;;9.57;6.57;;;1.70;99.90;;;;;;5072901;28;20210;-70
2023/04/21 02:55:32;;;;;;;9.07;6.22;;;1.70;99.90;;;;;;5072595;28;20203;-70
2023/04/21 02:57:59;;;;;;;7.47;5.53;;;1.70;99.90;;;;;;5072350;28;20716;-70
2023/04/21 03:00:25;;;;;;;10.35;7.22;;;1.70;99.90;;;;;;5071482;28;20224;-70
2023/04/21 03:02:52;;;;;;;12.35;7.28;;;1.70;99.90;;;;;;5057202;28;20620;-70
2023/04/21 03:05:21;;;;;;;8.43;6.43;;;1.60;99.90;;;;;;5072884;28;20291;-70
2023/04/21 03:07:47;;;;;;;8.00;5.63;;;1.60;99.90;;;;;;5073166;28;20616;-70
2023/04/21 03:10:14;;;;;;;10.20;6.75;;;1.70;99.90;;;;;;5073087;28;20196;-70
2023/04/21 03:12:40;;;;;;;8.93;6.43;;;1.70;99.90;;;;;;5072390;28;20220;-70
2023/04/21 03:15:08;;;;;;;8.90;5.82;;;1.70;99.90;;;;;;5058206;28;20251;-70
2023/04/21 03:17:34;;;;;;;8.38;5.60;;;1.70;99.90;;;;;;5061691;28;20205;-70
2023/04/21 03:20:03;;;;;;;9.65;6.13;;;1.70;99.90;;;;;;5072117;28;20588;-70
2023/04/21 03:22:31;;;;;;;10.07;5.75;;;1.70;99.90;;;;;;5070590;28;20227;-70
2023/04/21 03:24:58;;;;;;;7.85;5.18;;;1.80;99.90;;;;;;5071939;28;20197;-70
2023/04/21 03:27:25;;;;;;;8.45;5.82;;;1.80;99.90;;;;;;5071440;28;20211;-70
2023/04/21 03:29:51;;;;;;;8.85;6.18;;;1.80;99.90;;;;;;5071957;28;20197;-70
2023/04/21 03:32:18;;;;;;;5.95;5.03;;;1.80;99.90;;;;;;5071248;28;20614;-70
2023/04/21 03:34:45;;;;;;;7.30;5.53;;;1.80;99.90;;;;;;5052666;28;20209;-70
2023/04/21 03:37:11;;;;;;;10.18;7.10;;;1.80;99.90;;;;;;5051531;28;20198;-70
2023/04/21 03:39:39;;;;;;;9.75;6.05;;;1.90;99.90;;;;;;5051489;28;20225;-70
2023/04/21 03:42:06;;;;;;;10.90;5.88;;;1.90;99.90;;;;;;5051050;28;20223;-70
2023/04/21 03:44:33;;;;;;;10.88;6.80;;;1.90;99.90;;;;;;5051628;28;20201;-70
2023/04/21 03:47:02;;;;;;;6.70;5.10;;;1.90;99.90;;;;;;5056279;28;20201;-70
2023/04/21 03:49:28;;;;;;;8.10;5.30;;;1.90;99.90;;;;;;5071479;28;20734;-70
2023/04/21 03:51:55;;;;;;;9.50;6.45;;;1.90;99.90;;;;;;5071032;28;20634;-70
2023/04/21 03:54:22;;;;;;;6.82;5.40;;;1.90;99.90;;;;;;5071263;28;20201;-70
2023/04/21 03:56:50;;;;;;;8.38;5.35;;;1.90;99.90;;;;;;5062925;28;20576;-70
2023/04/21 03:59:16;;;;;;;7.68;6.43;;;1.90;99.90;;;;;;5055821;28;20227;-70
2023/04/21 04:01:43;;;;;;;8.07;5.75;;;1.90;99.90;;;;;;5050557;28;20326;-70
2023/04/21 04:04:10;;;;;;;12.00;6.25;;;1.90;99.90;;;;;;5051026;28;20212;-70
2023/04/21 04:06:37;;;;;;;6.07;4.40;;;1.80;99.90;;;;;;5051132;28;20205;-70
2023/04/21 04:09:03;;;;;;;8.27;5.90;;;1.90;99.90;;;;;;5050857;28;20197;-70
2023/04/21 04:11:30;;;;;;;10.85;6.22;;;1.90;99.90;;;;;;5050261;28;20617;-70
2023/04/21 04:13:58;;;;;;;6.53;4.68;;;1.90;99.90;;;;;;5051300;28;20205;-69
2023/04/21 04:16:27;;;;;;;9.82;6.45;;;1.90;99.90;;;;;;5050861;28;20211;-70
2023/04/21 04:18:54;;;;;;;6.50;5.50;;;1.90;99.90;;;;;;5051070;28;20207;-70
2023/04/21 04:21:21;;;;;;;8.52;5.65;;;2.00;99.90;;;;;;5050336;28;20223;-70
2023/04/21 04:23:50;;;;;;;7.65;5.10;;;2.00;99.90;;;;;;5050864;28;20259;-70
2023/04/21 04:26:17;;;;;;;10.23;6.15;;;2.00;99.90;;;;;;5050566;28;20626;-70
2023/04/21 04:28:44;;;;;;;7.18;4.97;;;2.00;99.90;;;;;;5050493;28;20209;-70
2023/04/21 04:31:13;;;;;;;9.45;6.32;;;2.00;99.90;;;;;;5050124;28;20224;-69
2023/04/21 04:33:41;;;;;;;6.93;5.20;;;2.00;99.90;;;;;;5050422;28;20210;-69
2023/04/21 04:36:08;;;;;;;8.25;5.78;;;2.00;99.90;;;;;;5069620;28;20201;-70
2023/04/21 04:38:36;;;;;;;11.52;6.55;;;2.00;99.90;;;;;;5070060;28;20209;-69
2023/04/21 04:41:03;;;;;;;7.20;5.45;;;2.10;99.90;;;;;;5069721;28;20224;-69
2023/04/21 04:43:32;;;;;;;10.07;6.28;;;2.10;99.90;;;;;;5090432;28;20203;-69
2023/04/21 04:45:59;;;;;;;7.53;5.45;;;2.10;99.90;;;;;;5090638;28;20249;-69
2023/04/21 04:48:26;;;;;;;8.50;5.43;;;2.20;99.90;;;;;;5090569;28;20211;-69
2023/04/21 04:50:53;;;;;;;7.93;5.53;;;2.20;99.90;;;;;;5090157;28;20221;-71
2023/04/21 04:53:20;;;;;;;6.93;6.05;;;2.20;99.90;;;;;;5083135;28;20690;-69
2023/04/21 04:55:47;;;;;;;6.60;5.40;;;2.20;99.90;;;;;;5070032;28;20262;-70
2023/04/21 04:58:14;;;;;;;7.47;5.40;;;2.30;99.90;;;;;;5070083;28;20207;-70
2023/04/21 05:00:41;;;;;;;7.85;6.55;;;2.30;99.90;;;;;;5067895;28;20224;-70
2023/04/21 05:03:07;;;;;;;8.60;4.97;;;2.40;99.90;;;;;;5071254;28;20581;-71
2023/04/21 05:05:35;;;;;;;7.80;5.22;;;2.40;99.90;;;;;;5086876;28;20235;-72
2023/04/21 05:08:02;;;;;;;7.82;5.93;;;2.40;99.90;;;;;;5087335;28;20203;-70
2023/04/21 05:10:29;;;;;;;9.65;6.03;;;2.50;99.90;;;;;;5087474;28;20200;-72
2023/04/21 05:12:55;;;;;;;7.35;5.80;;;2.50;99.90;;;;;;5070280;28;20612;-72
2023/04/21 05:15:22;;;;;;;9.23;5.75;;;2.60;99.90;;;;;;5070136;28;20621;-71
2023/04/21 05:17:49;;;;;;;8.68;5.93;;;2.70;99.90;;;;;;5078677;28;20287;-71
2023/04/21 05:20:16;;;;;;;9.10;5.28;;;2.80;99.90;;;;;;5085102;28;20302;-72
2023/04/21 05:22:47;;;;;;;7.30;6.35;;;2.80;99.90;;;;;;5098986;22;20243;-93
2023/04/21 05:25:18;;;;;;;7.30;5.80;;;2.90;99.90;;;;;;5083797;28;20278;-94
2023/04/21 05:27:44;;;;;;;14.93;7.15;;;2.90;99.90;;;;;;5091303;28;20180;-93
2023/04/21 05:30:12;;;;;;;7.10;5.13;;;2.90;99.90;;;;;;5102596;28;20262;-93
2023/04/21 05:32:38;;;;;;;6.38;5.28;;;3.00;99.90;;;;;;5111272;28;20226;-93
2023/04/21 05:35:07;;;;;;;9.23;5.30;;;3.00;99.90;;;;;;5101503;28;20213;-94
2023/04/21 05:37:34;;;;;;;10.48;6.85;;;3.00;99.90;;;;;;5110661;28;20210;-94
2023/04/21 05:40:03;;;;;;;8.35;5.80;;;3.10;99.90;;;;;;5107709;28;20662;-93
2023/04/21 05:42:30;;;;;;;6.90;5.47;;;3.10;99.90;;;;;;5106136;28;20233;-93
2023/04/21 05:44:58;;;;;;;10.57;6.30;;;3.20;99.90;;;;;;5110208;28;20222;-92
2023/04/21 05:47:25;;;;;;;8.60;5.47;;;3.20;99.90;;;;;;5105884;28;20212;-93
2023/04/21 05:49:52;;;;;;;10.68;5.95;;;3.30;99.90;;;;;;5106548;28;20192;-93
2023/04/21 05:52:25;;;;;;;9.40;6.32;;;3.30;99.90;;;;;;5106451;28;20775;-93
2023/04/21 05:54:52;;;;;;;8.80;6.18;;;3.40;99.90;;;;;;5114434;28;20172;-93
2023/04/21 05:57:22;;;;;;;9.73;6.20;;;3.40;99.90;;;;;;5120871;28;20198;-92
2023/04/21 05:59:49;;;;;;;10.70;7.22;;;3.50;99.90;;;;;;5121519;28;20216;-93
2023/04/21 06:02:16;;;;;;;10.07;6.97;;;3.60;99.90;;;;;;5121279;28;20219;-94
2023/04/21 06:04:43;;;;;;;10.48;7.30;;;3.70;99.90;;;;;;5121707;28;20194;-92
2023/04/21 06:07:12;;;;;;;11.85;6.88;;;3.80;99.90;;;;;;5130838;22;20235;-70
2023/04/21 06:09:40;;;;;;;9.73;6.97;;;4.00;99.90;;;;;;5113866;28;20666;-70
2023/04/21 06:12:07;;;;;;;13.68;7.82;;;4.10;99.90;;;;;;5113655;28;20238;-70
2023/04/21 06:14:35;;;;;;;13.20;9.43;;;4.30;99.90;;;;;;5097456;28;20204;-70
2023/04/21 06:17:01;;;;;;;13.85;8.75;;;4.50;99.90;;;;;;5097545;28;20198;-70
2023/04/21 06:19:28;;;;;;;14.18;9.98;;;4.60;99.90;;;;;;5113798;28;20203;-70
2023/04/21 06:21:56;;;;;;;15.30;9.85;;;4.70;99.90;;;;;;5113347;28;20234;-70
2023/04/21 06:24:24;;;;;;;15.52;10.20;;;4.90;99.90;;;;;;5106871;28;20203;-70
2023/04/21 06:26:52;;;;;;;14.82;9.02;;;5.00;99.90;;;;;;5093557;28;20223;-70
2023/04/21 06:29:19;;;;;;;11.40;8.35;;;5.00;99.90;;;;;;5093332;28;20248;-70
2023/04/21 06:31:47;;;;;;;15.88;9.65;;;5.10;99.90;;;;;;5092939;28;20489;-70
2023/04/21 06:34:14;;;;;;;10.93;7.90;;;5.10;99.90;;;;;;5107185;28;20207;-70
2023/04/21 06:36:41;;;;;;;16.13;8.75;;;5.10;99.90;;;;;;5113565;28;20199;-70
2023/04/21 06:39:07;;;;;;;12.25;9.57;;;5.20;99.90;;;;;;5113434;28;20294;-70
2023/04/21 06:41:34;;;;;;;15.35;8.85;;;5.30;99.90;;;;;;5113130;28;20716;-70
2023/04/21 06:44:01;;;;;;;13.23;8.10;;;5.40;99.90;;;;;;5097128;28;20206;-70
2023/04/21 06:46:28;;;;;;;12.18;9.05;;;5.50;99.90;;;;;;5106569;28;20208;-70
2023/04/21 06:48:56;;;;;;;14.35;8.05;;;5.50;99.90;;;;;;5093265;28;20249;-70
2023/04/21 06:51:22;;;;;;;11.32;8.85;;;5.50;99.90;;;;;;5093084;28;20220;-70
2023/04/21 06:53:49;;;;;;;13.43;8.45;;;5.50;99.90;;;;;;5095040;28;20222;-70
2023/04/21 06:56:16;;;;;;;14.40;9.27;;;5.50;99.90;;;;;;5105119;28;20574;-70
2023/04/21 06:58:42;;;;;;;11.25;9.02;;;5.60;99.90;;;;;;5112855;28;20629;-70
2023/04/21 07:01:09;;;;;;;17.63;10.27;;;5.70;99.90;;;;;;5112717;28;20226;-70
2023/04/21 07:03:36;;;;;;;14.30;8.95;;;5.90;99.90;;;;;;5113049;28;20203;-70
2023/04/21 07:06:04;;;;;;;14.02;8.65;;;6.00;99.90;;;;;;5109560;28;20654;-70
2023/04/21 07:08:31;;;;;;;14.90;8.63;;;6.20;99.90;;;;;;5092492;28;20215;-70
2023/04/21 07:10:57;;;;;;;16.10;9.68;;;6.30;99.90;;;;;;5103321;28;20230;-70
2023/04/21 07:13:24;;;;;;;18.35;9.75;;;6.50;99.90;;;;;;5107222;28;20666;-71
2023/04/21 07:15:51;;;;;;;18.10;10.10;;;6.60;99.90;;;;;;5103642;28;20210;-70
2023/04/21 07:18:18;;;;;;;11.88;9.77;;;6.60;99.90;;;;;;5112993;28;20258;-69
2023/04/21 07:20:45;;;;;;;15.43;10.02;;;6.60;99.90;;;;;;5111705;28;20223;-69
2023/04/21 07:23:13;;;;;;;13.32;9.10;;;6.70;99.90;;;;;;5092558;28;20206;-69
2023/04/21 07:25:39;;;;;;;14.07;8.32;;;6.70;99.90;;;;;;5092361;28;20200;-70
2023/04/21 07:28:06;;;;;;;16.02;10.90;;;6.80;99.90;;;;;;5104722;28;20191;-70
2023/04/21 07:30:33;;;;;;;16.98;9.93;;;6.90;99.90;;;;;;5112338;28;20207;-70
2023/04/21 07:33:00;;;;;;;13.65;9.18;;;7.10;99.90;;;;;;5109653;28;20203;-69
2023/04/21 07:35:27;;;;;;;15.48;8.38;;;7.30;99.90;;;;;;5099598;28;20223;-70
2023/04/21 07:37:54;;;;;;;11.75;8.55;;;7.40;99.90;;;;;;5105531;28;20208;-71
2023/04/21 07:40:22;;;;;;;17.88;9.63;;;7.50;99.90;;;;;;5094533;28;20223;-71
2023/04/21 07:42:48;;;;;;;12.52;9.55;;;7.50;99.90;;;;;;5094106;28;20597;-70
2023/04/21 07:45:15;;;;;;;12.18;8.13;;;7.70;99.90;;;;;;5094862;28;20582;-70
2023/04/21 07:47:42;;;;;;;12.48;8.65;;;7.70;99.90;;;;;;5095029;28;20569;-70
2023/04/21 07:50:09;;;;;;;14.10;9.27;;;7.80;99.90;;;;;;5114982;28;20195;-72
2023/04/21 07:52:36;;;;;;;12.82;8.45;;;7.80;99.90;;;;;;5153670;22;20236;-72
2023/04/21 07:55:03;;;;;;;10.73;7.97;;;7.90;99.90;;;;;;5083028;28;20200;-71
2023/04/21 07:57:33;;;;;;;10.82;7.25;;;8.00;99.90;;;;;;5091487;28;20655;-73
2023/04/21 08:00:00;;;;;;;16.33;8.40;;;8.10;99.90;;;;;;5091314;28;20252;-73
2023/04/21 08:02:26;;;;;;;11.07;7.72;;;8.20;99.90;;;;;;5091327;28;20228;-72
2023/04/21 08:04:53;;;;;;;11.80;7.50;;;8.40;99.90;;;;;;5091720;28;20199;-74
2023/04/21 08:07:20;;;;;;;10.35;7.88;;;8.60;99.90;;;;;;5091494;28;20200;-75
2023/04/21 08:09:47;;;;;;;9.00;6.55;;;8.80;99.90;;;;;;5090727;28;20674;-72
2023/04/21 08:12:13;;;;;;;10.90;8.15;;;9.10;99.90;;;;;;5090910;28;20243;-72
2023/04/21 08:14:41;;;;;;;8.43;6.90;;;9.40;99.90;;;;;;5091592;28;20579;-72
2023/04/21 08:17:08;;;;;;;10.57;8.05;;;9.60;99.90;;;;;;5091499;28;20650;-73
2023/04/21 08:19:35;;;;;;;8.23;5.57;;;9.90;99.90;;;;;;5091482;28;20200;-74
2023/04/21 08:22:01;;;;;;;9.43;6.82;;;10.40;99.90;;;;;;5088420;28;20599;-76
2023/04/21 08:24:28;;;;;;;7.70;5.93;;;11.00;99.90;;;;;;5071003;28;20206;-75
2023/04/21 08:26:56;;;;;;;7.40;5.90;;;11.50;99.90;;;;;;5072646;28;20207;-76
2023/04/21 08:29:23;;;;;;;6.85;5.40;;;11.90;99.90;;;;;;5091262;28;20199;-74
2023/04/21 08:31:51;;;;;;;6.47;5.28;;;12.40;99.90;;;;;;5090248;28;20224;-74
2023/04/21 08:34:18;;;;;;;6.90;6.18;;;12.80;99.90;;;;;;5090936;28;20203;-74
2023/04/21 08:36:46;;;;;;;5.90;5.15;;;13.10;99.90;;;;;;5090778;28;20206;-73
2023/04/21 08:39:13;;;;;;;7.20;6.10;;;13.50;99.90;;;;;;5091741;28;20204;-74
2023/04/21 08:41:40;;;;;;;7.00;5.32;;;13.80;99.90;;;;;;5090846;28;20517;-72
2023/04/21 08:44:07;;;;;;;6.03;5.37;;;13.90;99.90;;;;;;5090990;28;20195;-71
2023/04/21 08:46:35;;;;;;;7.60;5.57;;;14.20;99.90;;;;;;5090753;28;20469;-73
2023/04/21 08:49:03;;;;;;;7.00;5.43;;;14.50;99.90;;;;;;5090416;28;20464;-70
2023/04/21 08:51:32;;;;;;;7.70;5.80;;;14.70;99.90;;;;;;5090078;28;20484;-72
2023/04/21 08:53:59;;;;;;;6.03;4.93;;;14.90;99.90;;;;;;5090366;28;20519;-73
2023/04/21 08:56:26;;;;;;;5.17;4.67;;;15.40;99.90;;;;;;5090732;28;20834;-71
2023/04/21 08:58:52;;;;;;;4.13;3.53;;;15.80;99.90;;;;;;5090212;28;20457;-73
2023/04/21 09:01:19;;;;;;;4.80;4.23;;;15.80;99.90;;;;;;5090143;28;21018;-73
2023/04/21 09:03:46;;;;;;;4.67;4.17;;;15.90;99.90;;;;;;5090625;28;20991;-73
2023/04/21 09:06:14;;;;;;;5.00;4.50;;;16.40;99.90;;;;;;5078380;28;20461;-74
2023/04/21 09:08:44;;;;;;;6.33;4.50;;;16.70;99.90;;;;;;5070007;28;20464;-74
2023/04/21 09:11:14;;;;;;;5.67;4.30;;;17.10;99.90;;;;;;5069794;28;20471;-72
2023/04/21 09:13:43;;;;;;;4.37;3.97;;;17.60;99.90;;;;;;5070685;28;20466;-74
2023/04/21 09:16:17;;;;;;;6.50;5.70;;;17.90;99.90;;;;;;5070950;28;20486;-70
2023/04/21 09:18:44;;;;;;;5.70;5.07;;;18.40;99.90;;;;;;5069867;28;20466;-71
2023/04/21 09:21:14;;;;;;;5.67;5.17;;;18.70;99.90;;;;;;5068856;28;20988;-71
2023/04/21 09:23:42;;;;;;;8.90;5.10;;;19.10;99.90;;;;;;5070041;28;20465;-73
2023/04/21 09:26:10;;;;;;;4.93;4.43;;;19.70;99.90;;;;;;5069464;28;20493;-72
2023/04/21 09:28:37;;;;;;;4.20;3.67;;;19.70;99.90;;;;;;5069869;28;20211;-70
2023/04/21 09:31:03;;;;;;;3.87;3.57;;;20.10;99.90;;;;;;5069377;28;20482;-69
2023/04/21 09:33:34;;;;;;;4.70;3.70;;;20.80;99.90;;;;;;5069912;28;20482;-70
2023/04/21 09:36:02;;;;;;;4.20;3.53;;;20.90;99.90;;;;;;5072072;28;20465;-68
2023/04/21 09:38:30;;;;;;;4.03;3.47;;;21.20;99.90;;;;;;5090290;28;20485;-68
2023/04/21 09:40:58;;;;;;;4.07;3.67;;;21.60;99.40;;;;;;5077594;28;20526;-67
2023/04/21 09:43:25;;;;;;;9.80;4.60;;;21.70;99.20;;;;;;5068382;28;20513;-69
2023/04/21 09:45:53;;;;;;;4.43;3.90;;;21.30;99.30;;;;;;5069351;28;20462;-69
2023/04/21 09:48:24;;;;;;;3.93;3.53;;;21.30;99.80;;;;;;5077107;28;21247;-69
2023/04/21 09:50:55;;;;;;;3.97;3.50;;;21.40;98.90;;;;;;5068352;28;20467;-69
2023/04/21 09:53:24;;;;;;;4.57;4.10;;;21.50;99.40;;;;;;5077734;28;20470;-69
2023/04/21 09:55:58;;;;;;;4.10;3.70;;;21.20;99.00;;;;;;5083336;28;20488;-68
2023/04/21 09:58:31;;;;;;;4.13;3.63;;;21.30;98.50;;;;;;5056959;28;20471;-68
2023/04/21 10:00:58;;;;;;;3.90;3.50;;;21.50;98.20;;;;;;5067154;28;20582;-68
2023/04/21 10:03:28;;;;;;;3.83;3.27;;;21.60;98.70;;;;;;5074530;28;20466;-67
2023/04/21 10:05:55;;;;;;;4.20;3.57;;;21.90;98.20;;;;;;5085754;28;20494;-68
2023/04/21 10:08:22;;;;;;;4.93;4.17;;;22.30;98.00;;;;;;5074952;28;20466;-71
2023/04/21 10:10:51;;;;;;;6.30;4.23;;;22.70;97.80;;;;;;5069268;28;20466;-69
2023/04/21 10:13:20;;;;;;;3.67;3.27;;;22.70;96.50;;;;;;5088437;28;20497;-69
2023/04/21 10:15:47;;;;;;;4.00;3.60;;;22.60;97.00;;;;;;5087908;28;20465;-69
2023/04/21 10:18:16;;;;;;;4.10;3.70;;;22.60;97.00;;;;;;5061436;28;20462;-70
2023/04/21 10:20:54;;;;;;;4.13;3.63;;;22.40;95.50;;;;;;5063395;28;20467;-70
2023/04/21 10:23:28;;;;;;;4.20;3.80;;;22.50;96.10;;;;;;5058917;28;20506;-71
2023/04/21 10:26:02;;;;;;;4.30;3.90;;;22.20;96.70;;;;;;5063333;28;20462;-70
2023/04/21 10:28:56;;;;;;;4.23;3.60;;;22.10;96.50;;;;;;5067119;28;20817;-69
2023/04/21 10:31:28;;;;;;;3.63;3.33;;;22.50;96.10;;;;;;5059553;28;20478;-70
2023/04/21 10:34:29;;;;;;;5.13;3.33;;;22.70;97.20;;;;;;5079568;28;20886;-69
2023/04/21 10:37:14;;;;;;;4.10;3.70;;;23.10;96.40;;;;;;5076274;28;20530;-70
2023/04/21 10:39:47;;;;;;;4.63;4.17;;;23.90;96.20;;;;;;5090172;28;20906;-71
2023/04/21 10:42:23;;;;;;;4.40;4.00;;;24.30;95.80;;;;;;5072046;28;20484;-69
2023/04/21 10:45:12;;;;;;;4.47;4.07;;;24.60;95.90;;;;;;5078943;28;20498;-69
2023/04/21 10:47:50;;;;;;;4.83;4.33;;;25.00;94.80;;;;;;5070580;28;20544;-68
2023/04/21 10:50:19;;;;;;;4.17;3.70;;;25.00;94.50;;;;;;5064560;28;20554;-70
2023/04/21 10:52:52;;;;;;;4.73;4.23;;;25.20;95.00;;;;;;5039764;28;1090206;-70
2023/04/21 10:55:19;;;;;;;7.87;4.57;;;25.40;94.80;;;;;;5086769;28;20240;-69
2023/04/21 10:57:46;;;;;;;4.10;3.67;;;25.90;93.30;;;;;;5091237;28;20458;-70
2023/04/21 11:00:20;;;;;;;4.77;4.20;;;25.80;94.10;;;;;;5092501;28;20455;-69
2023/04/21 11:02:55;;;;;;;4.93;4.43;;;25.40;93.70;;;;;;5072927;28;20607;-71
2023/04/21 11:05:30;;;;;;;5.47;4.80;;;25.00;95.00;;;;;;5092335;28;20465;-69
2023/04/21 11:08:15;;;;;;;6.67;4.63;;;24.80;93.50;;;;;;5082528;28;20464;-70
2023/04/21 11:10:47;;;;;;;5.13;4.53;;;24.60;93.80;;;;;;5066252;28;20455;-70
2023/04/21 11:13:14;;;;;;;5.43;4.80;;;24.30;94.50;;;;;;5074533;28;20863;-69
2023/04/21 11:15:56;;;;;;;4.80;4.40;;;24.60;94.10;;;;;;5091766;28;20463;-69
2023/04/21 11:18:37;;;;;;;4.40;4.00;;;24.80;94.70;;;;;;5086547;28;20456;-69
2023/04/21 11:21:12;;;;;;;5.20;4.70;;;25.20;95.20;;;;;;5072742;28;20513;-70
2023/04/21 11:23:48;;;;;;;5.00;4.50;;;24.90;95.00;;;;;;5091608;28;20458;-68
2023/04/21 11:26:14;;;;;;;5.17;4.60;;;25.20;94.10;;;;;;5071599;28;20473;-70
2023/04/21 11:28:41;;;;;;;5.60;5.10;;;25.50;94.90;;;;;;5071201;28;20466;-69
2023/04/21 11:31:11;;;;;;;6.80;5.27;;;25.90;93.70;;;;;;5070742;28;20561;-69
2023/04/21 11:33:39;;;;;;;5.90;5.20;;;26.00;92.90;;;;;;5070678;28;20964;-70
2023/04/21 11:36:06;;;;;;;5.67;5.07;;;25.20;93.40;;;;;;5071537;28;20481;-69
2023/04/21 11:38:40;;;;;;;6.30;5.50;;;25.00;94.20;;;;;;5071320;28;20871;-71
2023/04/21 11:41:09;;;;;;;5.63;4.60;;;25.00;92.40;;;;;;5070323;28;20477;-70
2023/04/21 11:43:36;;;;;;;5.03;4.60;;;25.10;94.70;;;;;;5084040;28;20462;-71
2023/04/21 11:46:17;;;;;;;5.90;4.90;;;25.10;94.50;;;;;;5092229;28;20473;-70
2023/04/21 11:48:44;;;;;;;5.10;4.70;;;25.40;94.10;;;;;;5090659;28;20461;-72
2023/04/21 11:51:18;;;;;;;4.83;4.43;;;25.60;92.30;;;;;;5090822;28;20481;-72
2023/04/21 11:53:47;;;;;;;5.87;4.93;;;25.80;93.50;;;;;;5091022;28;20461;-70
2023/04/21 11:56:20;;;;;;;5.40;4.90;;;26.20;93.30;;;;;;5090600;28;20454;-70
2023/04/21 11:58:47;;;;;;;4.77;4.37;;;26.30;92.20;;;;;;5090509;28;20473;-70
2023/04/21 12:01:17;;;;;;;4.80;4.40;;;26.40;93.20;;;;;;5089835;28;20477;-71
2023/04/21 12:03:51;;;;;;;4.73;4.33;;;26.90;92.90;;;;;;5090860;28;20458;-70
2023/04/21 12:06:21;;;;;;;5.53;4.57;;;26.30;92.60;;;;;;5090768;28;20457;-70
2023/04/21 12:08:48;;;;;;;5.40;4.90;;;25.60;92.90;;;;;;5070393;28;20848;-70
2023/04/21 12:11:16;;;;;;;5.40;4.90;;;25.20;92.70;;;;;;5051174;28;20504;-70
2023/04/21 12:13:45;;;;;;;5.63;4.70;;;25.20;93.20;;;;;;5065935;28;20457;-70
2023/04/21 12:16:12;;;;;;;4.97;4.40;;;25.60;93.30;;;;;;5072998;28;20459;-70
2023/04/21 12:18:43;;;;;;;4.33;3.93;;;25.20;91.90;;;;;;5090964;28;20806;-70
2023/04/21 12:21:14;;;;;;;5.33;4.83;;;25.20;93.70;;;;;;5090567;28;20894;-70
2023/04/21 12:23:41;;;;;;;5.17;4.10;;;25.00;91.80;;;;;;5090782;28;20472;-70
2023/04/21 12:26:07;;;;;;;4.57;4.13;;;24.70;93.80;;;;;;5091050;28;20467;-71
2023/04/21 12:28:35;;;;;;;4.33;3.93;;;24.90;94.40;;;;;;5090587;28;20462;-70
2023/04/21 12:31:01;;;;;;;4.00;3.60;;;25.20;92.70;;;;;;5090144;28;20514;-71
2023/04/21 12:33:28;;;;;;;3.73;3.43;;;25.20;92.40;;;;;;5090732;28;20461;-70
2023/04/21 12:35:56;;;;;;;4.60;3.97;;;24.90;92.60;;;;;;5091097;28;20469;-70
2023/04/21 12:38:23;;;;;;;4.40;3.53;;;24.30;92.60;;;;;;5090539;28;20848;-72
2023/04/21 12:40:50;;;;;;;3.53;3.17;;;24.00;93.70;;;;;;5074810;28;20481;-71
2023/04/21 12:43:17;;;;;;;3.20;2.90;;;24.40;92.90;;;;;;5073168;28;20834;-71
2023/04/21 12:45:43;;;;;;;3.43;2.90;;;24.80;93.60;;;;;;5090701;28;20545;-72
2023/04/21 12:48:10;;;;;;;3.40;3.10;;;24.90;93.00;;;;;;5090528;28;20464;-71
2023/04/21 12:50:37;;;;;;;3.10;2.90;;;25.20;93.00;;;;;;5076278;28;20460;-73
2023/04/21 12:53:05;;;;;;;2.80;2.60;;;25.50;93.10;;;;;;5070393;28;20467;-72
2023/04/21 12:55:34;;;;;;;3.20;2.93;;;25.90;92.40;;;;;;5075093;28;20466;-72
2023/04/21 12:58:01;;;;;;;3.50;3.20;;;26.10;92.60;;;;;;5090380;28;20468;-72